sensor_id;sensor_type;location;lat;lon;timestamp;pressure;altitude;pressure_sealevel;temperature;humidity
67740;BME280;54536;50.090;14.420;2023-08-20T00:01:32;99732.09;;;27.31;49.12
67740;BME280;54536;50.090;14.420;2023-08-20T00:03:58;99731.41;;;27.24;49.36
67740;BME280;54536;50.090;14.420;2023-08-20T00:06:24;99732.09;;;27.20;49.42
67740;BME280;54536;50.090;14.420;2023-08-20T00:08:51;99730.31;;;27.14;49.32
67740;BME280;54536;50.090;14.420;2023-08-20T00:11:17;99732.78;;;27.03;50.18
67740;BME280;54536;50.090;14.420;2023-08-20T00:13:44;99733.59;;;27.04;49.72
67740;BME280;54536;50.090;14.420;2023-08-20T00:16:13;99729.50;;;27.01;50.06
67740;BME280;54536;50.090;14.420;2023-08-20T00:18:40;99728.81;;;27.18;49.47
67740;BME280;54536;50.090;14.420;2023-08-20T00:21:07;99730.19;;;27.20;48.53
67740;BME280;54536;50.090;14.420;2023-08-20T00:23:35;99731.59;;;26.99;49.05
67740;BME280;54536;50.090;14.420;2023-08-20T00:26:01;99725.28;;;27.05;48.93
67740;BME280;54536;50.090;14.420;2023-08-20T00:28:29;99725.03;;;26.83;49.35
67740;BME280;54536;50.090;14.420;2023-08-20T00:30:55;99722.69;;;26.99;49.68
67740;BME280;54536;50.090;14.420;2023-08-20T00:33:21;99730.66;;;27.05;49.04
67740;BME280;54536;50.090;14.420;2023-08-20T00:35:47;99722.91;;;27.09;49.62
67740;BME280;54536;50.090;14.420;2023-08-20T00:38:13;99721.63;;;27.00;49.19
67740;BME280;54536;50.090;14.420;2023-08-20T00:40:39;99730.31;;;26.90;49.38
67740;BME280;54536;50.090;14.420;2023-08-20T00:43:06;99731.13;;;26.91;49.62
67740;BME280;54536;50.090;14.420;2023-08-20T00:45:32;99727.38;;;26.80;49.50
67740;BME280;54536;50.090;14.420;2023-08-20T00:48:00;99731.13;;;26.91;48.99
67740;BME280;54536;50.090;14.420;2023-08-20T00:50:26;99735.81;;;26.60;49.51
67740;BME280;54536;50.090;14.420;2023-08-20T00:52:53;99736.31;;;26.69;49.85
67740;BME280;54536;50.090;14.420;2023-08-20T00:55:20;99740.50;;;26.53;50.27
67740;BME280;54536;50.090;14.420;2023-08-20T00:57:46;99740.97;;;26.61;49.70
67740;BME280;54536;50.090;14.420;2023-08-20T01:00:13;99745.97;;;26.46;49.84
67740;BME280;54536;50.090;14.420;2023-08-20T01:02:39;99745.31;;;26.51;50.22
67740;BME280;54536;50.090;14.420;2023-08-20T01:05:09;99743.66;;;26.50;50.45
67740;BME280;54536;50.090;14.420;2023-08-20T01:12:43;99758.78;;;26.51;51.10
67740;BME280;54536;50.090;14.420;2023-08-20T01:15:10;99757.28;;;26.25;51.73
67740;BME280;54536;50.090;14.420;2023-08-20T01:17:41;99748.75;;;26.28;51.91
67740;BME280;54536;50.090;14.420;2023-08-20T01:20:10;99748.75;;;26.28;51.39
67740;BME280;54536;50.090;14.420;2023-08-20T01:25:32;99739.94;;;26.21;51.95
67740;BME280;54536;50.090;14.420;2023-08-20T01:30:45;99738.88;;;26.22;52.16
67740;BME280;54536;50.090;14.420;2023-08-20T01:33:14;99744.63;;;26.25;51.74
67740;BME280;54536;50.090;14.420;2023-08-20T01:35:40;99742.44;;;26.34;51.72
67740;BME280;54536;50.090;14.420;2023-08-20T01:38:07;99739.94;;;26.21;52.59
67740;BME280;54536;50.090;14.420;2023-08-20T01:40:33;99740.44;;;26.29;51.96
67740;BME280;54536;50.090;14.420;2023-08-20T01:43:00;99740.63;;;26.16;52.60
67740;BME280;54536;50.090;14.420;2023-08-20T01:45:29;99745.59;;;26.01;52.93
67740;BME280;54536;50.090;14.420;2023-08-20T01:47:55;99747.50;;;26.12;53.04
67740;BME280;54536;50.090;14.420;2023-08-20T01:50:21;99744.78;;;26.00;53.41
67740;BME280;54536;50.090;14.420;2023-08-20T01:52:48;99747.13;;;25.97;53.64
67740;BME280;54536;50.090;14.420;2023-08-20T01:55:14;99745.63;;;26.12;53.08
67740;BME280;54536;50.090;14.420;2023-08-20T01:57:40;99751.72;;;26.08;53.12
67740;BME280;54536;50.090;14.420;2023-08-20T02:00:07;99757.56;;;26.05;53.14
67740;BME280;54536;50.090;14.420;2023-08-20T02:02:34;99759.63;;;25.91;53.61
67740;BME280;54536;50.090;14.420;2023-08-20T02:05:01;99761.84;;;25.76;53.84
67740;BME280;54536;50.090;14.420;2023-08-20T02:07:28;99768.31;;;25.56;54.65
67740;BME280;54536;50.090;14.420;2023-08-20T02:09:54;99769.19;;;25.50;54.79
67740;BME280;54536;50.090;14.420;2023-08-20T02:12:20;99764.63;;;25.69;54.20
67740;BME280;54536;50.090;14.420;2023-08-20T02:14:47;99770.09;;;25.62;54.94
67740;BME280;54536;50.090;14.420;2023-08-20T02:17:13;99769.50;;;25.60;54.66
67740;BME280;54536;50.090;14.420;2023-08-20T02:19:40;99768.09;;;25.58;55.00
67740;BME280;54536;50.090;14.420;2023-08-20T02:22:09;99771.97;;;25.62;54.40
67740;BME280;54536;50.090;14.420;2023-08-20T02:24:35;99777.16;;;25.82;54.22
67740;BME280;54536;50.090;14.420;2023-08-20T02:27:01;99765.47;;;25.88;54.06
67740;BME280;54536;50.090;14.420;2023-08-20T02:29:27;99760.69;;;25.90;53.51
67740;BME280;54536;50.090;14.420;2023-08-20T02:31:54;99775.91;;;25.96;53.56
67740;BME280;54536;50.090;14.420;2023-08-20T02:34:20;99762.69;;;25.95;53.72
67740;BME280;54536;50.090;14.420;2023-08-20T02:36:46;99766.06;;;25.90;53.64
67740;BME280;54536;50.090;14.420;2023-08-20T02:39:14;99761.59;;;25.84;54.01
67740;BME280;54536;50.090;14.420;2023-08-20T02:41:40;99760.09;;;25.88;53.74
67740;BME280;54536;50.090;14.420;2023-08-20T02:44:07;99755.84;;;25.80;54.21
67740;BME280;54536;50.090;14.420;2023-08-20T02:46:33;99751.31;;;25.92;54.17
67740;BME280;54536;50.090;14.420;2023-08-20T02:48:59;99752.44;;;25.85;53.60
67740;BME280;54536;50.090;14.420;2023-08-20T02:51:26;99751.66;;;25.96;53.25
67740;BME280;54536;50.090;14.420;2023-08-20T02:53:52;99757.50;;;25.93;53.74
67740;BME280;54536;50.090;14.420;2023-08-20T02:56:19;99760.16;;;26.00;53.35
67740;BME280;54536;50.090;14.420;2023-08-20T02:58:45;99763.72;;;25.75;54.33
67740;BME280;54536;50.090;14.420;2023-08-20T03:01:25;99756.78;;;25.86;54.02
67740;BME280;54536;50.090;14.420;2023-08-20T03:03:52;99765.59;;;25.75;54.48
67740;BME280;54536;50.090;14.420;2023-08-20T03:06:18;99763.00;;;25.68;54.62
67740;BME280;54536;50.090;14.420;2023-08-20T03:08:45;99771.38;;;25.60;55.35
67740;BME280;54536;50.090;14.420;2023-08-20T03:11:12;99769.13;;;25.57;54.89
67740;BME280;54536;50.090;14.420;2023-08-20T03:13:38;99765.09;;;25.48;55.34
67740;BME280;54536;50.090;14.420;2023-08-20T03:16:04;99767.25;;;25.39;55.69
67740;BME280;54536;50.090;14.420;2023-08-20T03:18:30;99767.50;;;25.56;55.45
67740;BME280;54536;50.090;14.420;2023-08-20T03:20:57;99766.66;;;25.55;55.30
67740;BME280;54536;50.090;14.420;2023-08-20T03:23:24;99764.50;;;25.45;55.87
67740;BME280;54536;50.090;14.420;2023-08-20T03:25:50;99766.44;;;25.57;55.09
67740;BME280;54536;50.090;14.420;2023-08-20T03:28:18;99768.31;;;25.56;54.93
67740;BME280;54536;50.090;14.420;2023-08-20T03:30:45;99769.34;;;25.37;55.41
67740;BME280;54536;50.090;14.420;2023-08-20T03:33:11;99770.69;;;25.46;55.28
67740;BME280;54536;50.090;14.420;2023-08-20T03:35:39;99781.41;;;25.53;55.20
67740;BME280;54536;50.090;14.420;2023-08-20T03:38:05;99774.28;;;25.40;55.47
67740;BME280;54536;50.090;14.420;2023-08-20T03:40:31;99771.38;;;25.41;55.16
67740;BME280;54536;50.090;14.420;2023-08-20T03:42:57;99771.16;;;25.43;55.67
67740;BME280;54536;50.090;14.420;2023-08-20T03:45:23;99766.50;;;25.50;54.86
67740;BME280;54536;50.090;14.420;2023-08-20T03:47:49;99771.25;;;25.55;54.91
67740;BME280;54536;50.090;14.420;2023-08-20T03:50:16;99771.47;;;25.35;55.50
67740;BME280;54536;50.090;14.420;2023-08-20T03:52:42;99775.19;;;25.34;55.80
67740;BME280;54536;50.090;14.420;2023-08-20T03:55:08;99777.66;;;25.10;56.47
67740;BME280;54536;50.090;14.420;2023-08-20T03:57:34;99773.53;;;25.08;56.49
67740;BME280;54536;50.090;14.420;2023-08-20T04:00:01;99773.38;;;25.28;55.66
67740;BME280;54536;50.090;14.420;2023-08-20T04:02:28;99772.56;;;25.27;55.90
67740;BME280;54536;50.090;14.420;2023-08-20T04:04:57;99768.06;;;25.21;56.42
67740;BME280;54536;50.090;14.420;2023-08-20T04:07:23;99776.75;;;25.23;55.66
67740;BME280;54536;50.090;14.420;2023-08-20T04:09:50;99780.13;;;25.18;55.74
67740;BME280;54536;50.090;14.420;2023-08-20T04:12:16;99777.94;;;25.27;55.42
67740;BME280;54536;50.090;14.420;2023-08-20T04:14:42;99775.75;;;25.17;56.06
67740;BME280;54536;50.090;14.420;2023-08-20T04:17:08;99782.00;;;25.18;55.96
67740;BME280;54536;50.090;14.420;2023-08-20T04:19:34;99786.09;;;25.20;55.59
67740;BME280;54536;50.090;14.420;2023-08-20T04:22:00;99791.94;;;25.11;56.07
67740;BME280;54536;50.090;14.420;2023-08-20T04:24:27;99790.38;;;25.28;55.17
67740;BME280;54536;50.090;14.420;2023-08-20T04:26:53;99794.19;;;25.39;54.92
67740;BME280;54536;50.090;14.420;2023-08-20T04:29:19;99789.25;;;25.11;56.15
67740;BME280;54536;50.090;14.420;2023-08-20T04:31:45;99794.97;;;25.21;55.62
67740;BME280;54536;50.090;14.420;2023-08-20T04:34:12;99792.69;;;25.25;55.13
67740;BME280;54536;50.090;14.420;2023-08-20T04:36:38;99797.72;;;25.14;55.64
67740;BME280;54536;50.090;14.420;2023-08-20T04:39:04;99801.28;;;25.15;55.55
67740;BME280;54536;50.090;14.420;2023-08-20T04:41:30;99800.16;;;25.22;55.81
67740;BME280;54536;50.090;14.420;2023-08-20T04:43:56;99797.41;;;25.29;55.61
67740;BME280;54536;50.090;14.420;2023-08-20T04:46:22;99788.56;;;25.40;55.32
67740;BME280;54536;50.090;14.420;2023-08-20T04:48:49;99785.59;;;25.49;54.92
67740;BME280;54536;50.090;14.420;2023-08-20T04:51:15;99789.91;;;25.50;54.53
67740;BME280;54536;50.090;14.420;2023-08-20T04:53:41;99792.22;;;25.28;55.40
67740;BME280;54536;50.090;14.420;2023-08-20T04:56:07;99797.09;;;25.19;55.46
67740;BME280;54536;50.090;14.420;2023-08-20T04:58:34;99801.78;;;25.23;55.72
67740;BME280;54536;50.090;14.420;2023-08-20T05:01:00;99801.78;;;25.23;56.01
67740;BME280;54536;50.090;14.420;2023-08-20T05:03:26;99804.53;;;25.17;55.98
67740;BME280;54536;50.090;14.420;2023-08-20T05:05:52;99805.75;;;25.21;56.13
67740;BME280;54536;50.090;14.420;2023-08-20T05:08:18;99805.97;;;25.19;55.98
67740;BME280;54536;50.090;14.420;2023-08-20T05:10:44;99807.84;;;25.37;55.30
67740;BME280;54536;50.090;14.420;2023-08-20T05:13:11;99814.66;;;25.21;56.14
67740;BME280;54536;50.090;14.420;2023-08-20T05:15:37;99820.00;;;25.28;55.82
67740;BME280;54536;50.090;14.420;2023-08-20T05:18:03;99816.84;;;25.31;55.58
67740;BME280;54536;50.090;14.420;2023-08-20T05:20:29;99823.63;;;25.34;55.68
67740;BME280;54536;50.090;14.420;2023-08-20T05:22:56;99823.56;;;25.22;55.73
67740;BME280;54536;50.090;14.420;2023-08-20T05:25:22;99821.00;;;25.27;55.80
67740;BME280;54536;50.090;14.420;2023-08-20T05:27:48;99828.44;;;25.32;55.74
67740;BME280;54536;50.090;14.420;2023-08-20T05:30:14;99822.47;;;25.48;55.10
67740;BME280;54536;50.090;14.420;2023-08-20T05:32:41;99827.13;;;25.41;55.40
67740;BME280;54536;50.090;14.420;2023-08-20T05:35:07;99835.03;;;25.36;55.99
67740;BME280;54536;50.090;14.420;2023-08-20T05:37:33;99836.34;;;25.27;55.94
67740;BME280;54536;50.090;14.420;2023-08-20T05:40:02;99843.34;;;25.34;55.87
67740;BME280;54536;50.090;14.420;2023-08-20T05:42:29;99840.16;;;25.37;55.91
67740;BME280;54536;50.090;14.420;2023-08-20T05:44:55;99846.03;;;25.34;56.26
67740;BME280;54536;50.090;14.420;2023-08-20T05:47:22;99848.94;;;25.33;56.20
67740;BME280;54536;50.090;14.420;2023-08-20T05:49:51;99852.59;;;25.38;56.69
67740;BME280;54536;50.090;14.420;2023-08-20T05:52:17;99853.50;;;25.32;56.63
67740;BME280;54536;50.090;14.420;2023-08-20T05:54:43;99852.44;;;25.33;56.78
67740;BME280;54536;50.090;14.420;2023-08-20T05:57:10;99860.19;;;25.48;56.04
67740;BME280;54536;50.090;14.420;2023-08-20T05:59:36;99856.72;;;25.41;56.27
67740;BME280;54536;50.090;14.420;2023-08-20T06:02:02;99855.31;;;25.38;55.75
67740;BME280;54536;50.090;14.420;2023-08-20T06:04:29;99855.38;;;25.32;56.26
67740;BME280;54536;50.090;14.420;2023-08-20T06:06:55;99860.88;;;25.37;56.12
67740;BME280;54536;50.090;14.420;2023-08-20T06:09:21;99867.31;;;25.36;55.76
67740;BME280;54536;50.090;14.420;2023-08-20T06:11:48;99876.09;;;25.50;55.46
67740;BME280;54536;50.090;14.420;2023-08-20T06:14:15;99877.09;;;25.55;55.20
67740;BME280;54536;50.090;14.420;2023-08-20T06:16:41;99868.47;;;25.46;55.61
67740;BME280;54536;50.090;14.420;2023-08-20T06:19:07;99873.97;;;25.33;56.30
67740;BME280;54536;50.090;14.420;2023-08-20T06:21:34;99872.47;;;25.37;56.38
67740;BME280;54536;50.090;14.420;2023-08-20T06:24:01;99874.16;;;25.38;56.18
67740;BME280;54536;50.090;14.420;2023-08-20T06:26:27;99872.34;;;25.32;56.30
67740;BME280;54536;50.090;14.420;2023-08-20T06:28:53;99871.16;;;25.46;55.93
67740;BME280;54536;50.090;14.420;2023-08-20T06:31:19;99877.97;;;25.49;56.43
67740;BME280;54536;50.090;14.420;2023-08-20T06:33:47;99880.22;;;25.52;56.07
67740;BME280;54536;50.090;14.420;2023-08-20T06:36:13;99878.34;;;25.53;56.12
67740;BME280;54536;50.090;14.420;2023-08-20T06:38:39;99883.09;;;25.57;55.87
67740;BME280;54536;50.090;14.420;2023-08-20T06:41:06;99884.19;;;25.50;56.49
67740;BME280;54536;50.090;14.420;2023-08-20T06:43:32;99886.53;;;25.64;55.75
67740;BME280;54536;50.090;14.420;2023-08-20T06:45:59;99885.84;;;25.69;55.81
67740;BME280;54536;50.090;14.420;2023-08-20T06:48:25;99894.38;;;25.66;55.43
67740;BME280;54536;50.090;14.420;2023-08-20T06:50:52;99889.28;;;25.58;55.60
67740;BME280;54536;50.090;14.420;2023-08-20T06:53:18;99894.75;;;25.69;55.41
67740;BME280;54536;50.090;14.420;2023-08-20T06:55:45;99900.22;;;25.63;55.09
67740;BME280;54536;50.090;14.420;2023-08-20T06:58:11;99900.81;;;25.65;54.96
67740;BME280;54536;50.090;14.420;2023-08-20T07:00:37;99901.19;;;25.68;54.94
67740;BME280;54536;50.090;14.420;2023-08-20T07:03:04;99905.66;;;25.56;55.21
67740;BME280;54536;50.090;14.420;2023-08-20T07:05:30;99909.22;;;25.75;54.99
67740;BME280;54536;50.090;14.420;2023-08-20T07:07:56;99908.34;;;25.81;54.87
67740;BME280;54536;50.090;14.420;2023-08-20T07:10:22;99904.50;;;25.71;55.08
67740;BME280;54536;50.090;14.420;2023-08-20T07:12:48;99911.75;;;25.70;55.68
67740;BME280;54536;50.090;14.420;2023-08-20T07:15:15;99915.91;;;25.91;54.86
67740;BME280;54536;50.090;14.420;2023-08-20T07:17:41;99914.03;;;25.91;54.90
67740;BME280;54536;50.090;14.420;2023-08-20T07:20:07;99915.97;;;26.03;54.62
67740;BME280;54536;50.090;14.420;2023-08-20T07:22:33;99915.16;;;26.02;54.62
67740;BME280;54536;50.090;14.420;2023-08-20T07:24:59;99914.94;;;26.22;54.30
67740;BME280;54536;50.090;14.420;2023-08-20T07:27:25;99919.38;;;26.17;54.35
67740;BME280;54536;50.090;14.420;2023-08-20T07:29:52;99920.69;;;26.26;54.43
67740;BME280;54536;50.090;14.420;2023-08-20T07:32:19;99917.94;;;26.32;54.11
67740;BME280;54536;50.090;14.420;2023-08-20T07:34:45;99917.25;;;26.37;54.41
67740;BME280;54536;50.090;14.420;2023-08-20T07:37:11;99914.41;;;26.50;53.73
67740;BME280;54536;50.090;14.420;2023-08-20T07:39:37;99913.50;;;26.56;53.54
67740;BME280;54536;50.090;14.420;2023-08-20T07:42:04;99912.81;;;26.61;53.39
67740;BME280;54536;50.090;14.420;2023-08-20T07:44:30;99920.53;;;26.57;53.56
67740;BME280;54536;50.090;14.420;2023-08-20T07:46:57;99912.72;;;26.68;53.08
67740;BME280;54536;50.090;14.420;2023-08-20T07:49:24;99918.38;;;26.78;52.78
67740;BME280;54536;50.090;14.420;2023-08-20T07:51:50;99912.25;;;26.71;53.36
67740;BME280;54536;50.090;14.420;2023-08-20T07:54:18;99917.91;;;26.81;52.66
67740;BME280;54536;50.090;14.420;2023-08-20T07:56:44;99915.03;;;26.94;52.34
67740;BME280;54536;50.090;14.420;2023-08-20T07:59:11;99917.72;;;26.82;52.57
67740;BME280;54536;50.090;14.420;2023-08-20T08:01:37;99913.38;;;26.93;51.97
67740;BME280;54536;50.090;14.420;2023-08-20T08:04:03;99916.69;;;26.95;52.02
67740;BME280;54536;50.090;14.420;2023-08-20T08:06:29;99915.41;;;26.98;51.92
67740;BME280;54536;50.090;14.420;2023-08-20T08:08:56;99913.19;;;27.06;51.93
67740;BME280;54536;50.090;14.420;2023-08-20T08:11:22;99918.28;;;27.15;51.52
67740;BME280;54536;50.090;14.420;2023-08-20T08:13:48;99915.59;;;27.26;51.13
67740;BME280;54536;50.090;14.420;2023-08-20T08:16:14;99926.63;;;27.25;51.26
67740;BME280;54536;50.090;14.420;2023-08-20T08:18:41;99917.38;;;27.21;51.41
67740;BME280;54536;50.090;14.420;2023-08-20T08:21:07;99927.94;;;27.34;51.46
67740;BME280;54536;50.090;14.420;2023-08-20T08:23:34;99918.56;;;27.48;51.89
67740;BME280;54536;50.090;14.420;2023-08-20T08:26:00;99919.03;;;27.57;51.17
67740;BME280;54536;50.090;14.420;2023-08-20T08:28:26;99921.97;;;27.55;51.56
67740;BME280;54536;50.090;14.420;2023-08-20T08:30:52;99927.38;;;27.67;51.33
67740;BME280;54536;50.090;14.420;2023-08-20T08:33:19;99927.63;;;27.77;50.78
67740;BME280;54536;50.090;14.420;2023-08-20T08:35:45;99934.56;;;27.85;50.96
67740;BME280;54536;50.090;14.420;2023-08-20T08:38:11;99931.97;;;27.90;50.51
67740;BME280;54536;50.090;14.420;2023-08-20T08:40:40;99941.47;;;28.05;50.67
67740;BME280;54536;50.090;14.420;2023-08-20T08:43:09;99931.47;;;28.05;49.95
67740;BME280;54536;50.090;14.420;2023-08-20T08:45:46;99938.28;;;28.08;49.76
67740;BME280;54536;50.090;14.420;2023-08-20T08:48:14;99936.75;;;28.12;49.44
67740;BME280;54536;50.090;14.420;2023-08-20T08:50:40;99943.22;;;28.11;49.59
67740;BME280;54536;50.090;14.420;2023-08-20T08:53:08;99938.84;;;28.21;49.70
67740;BME280;54536;50.090;14.420;2023-08-20T08:55:34;99936.72;;;28.35;49.39
67740;BME280;54536;50.090;14.420;2023-08-20T08:58:01;99942.44;;;28.51;49.22
67740;BME280;54536;50.090;14.420;2023-08-20T09:00:27;99947.81;;;28.62;49.21
67740;BME280;54536;50.090;14.420;2023-08-20T09:02:56;99940.00;;;28.78;49.12
67740;BME280;54536;50.090;14.420;2023-08-20T09:05:25;99947.22;;;28.89;49.16
67740;BME280;54536;50.090;14.420;2023-08-20T09:07:56;99944.13;;;28.97;48.84
67740;BME280;54536;50.090;14.420;2023-08-20T09:10:26;99943.28;;;28.97;48.22
67740;BME280;54536;50.090;14.420;2023-08-20T09:12:55;99941.97;;;29.11;47.43
67740;BME280;54536;50.090;14.420;2023-08-20T09:15:31;99951.03;;;29.33;47.93
67740;BME280;54536;50.090;14.420;2023-08-20T09:18:01;99952.00;;;29.44;47.24
67740;BME280;54536;50.090;14.420;2023-08-20T09:20:37;99952.91;;;29.50;47.04
67740;BME280;54536;50.090;14.420;2023-08-20T09:23:11;99961.28;;;29.65;46.83
67740;BME280;54536;50.090;14.420;2023-08-20T09:25:37;99962.03;;;29.60;47.39
67740;BME280;54536;50.090;14.420;2023-08-20T09:28:04;99960.97;;;29.61;47.20
67740;BME280;54536;50.090;14.420;2023-08-20T09:30:30;99958.66;;;29.70;46.77
67740;BME280;54536;50.090;14.420;2023-08-20T09:33:13;99963.44;;;29.63;46.55
67740;BME280;54536;50.090;14.420;2023-08-20T09:35:52;99958.38;;;29.55;46.96
67740;BME280;54536;50.090;14.420;2023-08-20T09:38:21;99967.28;;;29.67;46.51
67740;BME280;54536;50.090;14.420;2023-08-20T09:40:49;99961.56;;;29.85;45.85
67740;BME280;54536;50.090;14.420;2023-08-20T09:43:16;99969.81;;;29.91;45.30
67740;BME280;54536;50.090;14.420;2023-08-20T09:45:46;99972.09;;;29.99;45.58
67740;BME280;54536;50.090;14.420;2023-08-20T09:48:19;99960.13;;;30.17;45.30
67740;BME280;54536;50.090;14.420;2023-08-20T09:50:51;99959.81;;;30.13;44.87
67740;BME280;54536;50.090;14.420;2023-08-20T09:53:38;99958.19;;;30.34;45.09
67740;BME280;54536;50.090;14.420;2023-08-20T09:56:11;99962.81;;;30.33;44.54
67740;BME280;54536;50.090;14.420;2023-08-20T09:58:40;99958.47;;;30.32;45.20
67740;BME280;54536;50.090;14.420;2023-08-20T10:01:07;99962.28;;;30.37;45.60
67740;BME280;54536;50.090;14.420;2023-08-20T10:03:34;99956.13;;;30.19;46.10
67740;BME280;54536;50.090;14.420;2023-08-20T10:06:02;99960.03;;;30.28;46.44
67740;BME280;54536;50.090;14.420;2023-08-20T10:08:30;99963.88;;;30.54;45.99
67740;BME280;54536;50.090;14.420;2023-08-20T10:10:56;99960.09;;;30.55;45.82
67740;BME280;54536;50.090;14.420;2023-08-20T10:13:22;99961.59;;;30.46;45.58
67740;BME280;54536;50.090;14.420;2023-08-20T10:15:49;99954.34;;;30.52;46.05
67740;BME280;54536;50.090;14.420;2023-08-20T10:18:19;99950.56;;;30.31;46.03
67740;BME280;54536;50.090;14.420;2023-08-20T10:20:45;99955.34;;;30.46;45.70
67740;BME280;54536;50.090;14.420;2023-08-20T10:23:12;99949.53;;;30.59;45.58
67740;BME280;54536;50.090;14.420;2023-08-20T10:25:42;99941.66;;;30.58;45.82
67740;BME280;54536;50.090;14.420;2023-08-20T10:28:24;99944.91;;;30.82;45.39
67740;BME280;54536;50.090;14.420;2023-08-20T10:31:16;99942.59;;;30.95;45.29
67740;BME280;54536;50.090;14.420;2023-08-20T10:33:53;99939.84;;;30.90;45.06
67740;BME280;54536;50.090;14.420;2023-08-20T10:36:21;99936.59;;;30.93;44.89
67740;BME280;54536;50.090;14.420;2023-08-20T10:38:51;99934.53;;;31.06;44.40
67740;BME280;54536;50.090;14.420;2023-08-20T10:41:30;99938.66;;;31.08;44.61
67740;BME280;54536;50.090;14.420;2023-08-20T10:44:00;99939.81;;;31.17;43.70
67740;BME280;54536;50.090;14.420;2023-08-20T10:46:29;99943.13;;;31.24;43.61
67740;BME280;54536;50.090;14.420;2023-08-20T10:49:02;99942.72;;;31.38;43.13
67740;BME280;54536;50.090;14.420;2023-08-20T10:51:34;99935.69;;;31.42;42.11
67740;BME280;54536;50.090;14.420;2023-08-20T10:57:03;99936.91;;;31.56;40.05
67740;BME280;54536;50.090;14.420;2023-08-20T10:59:30;99935.34;;;31.70;39.52
67740;BME280;54536;50.090;14.420;2023-08-20T11:01:58;99934.97;;;31.94;39.04
67740;BME280;54536;50.090;14.420;2023-08-20T11:04:31;99925.00;;;32.20;38.10
67740;BME280;54536;50.090;14.420;2023-08-20T11:07:01;99927.38;;;32.64;37.00
67740;BME280;54536;50.090;14.420;2023-08-20T11:09:30;99920.09;;;33.10;36.18
67740;BME280;54536;50.090;14.420;2023-08-20T11:11:57;99920.88;;;33.42;35.73
67740;BME280;54536;50.090;14.420;2023-08-20T11:14:24;99911.34;;;33.44;35.82
67740;BME280;54536;50.090;14.420;2023-08-20T11:16:50;99907.56;;;33.55;35.57
67740;BME280;54536;50.090;14.420;2023-08-20T11:19:22;99908.34;;;33.66;35.63
67740;BME280;54536;50.090;14.420;2023-08-20T11:21:49;99901.69;;;34.03;35.17
67740;BME280;54536;50.090;14.420;2023-08-20T11:24:16;99905.72;;;34.21;34.81
67740;BME280;54536;50.090;14.420;2023-08-20T11:26:43;99898.53;;;34.40;34.44
67740;BME280;54536;50.090;14.420;2023-08-20T11:29:15;99909.94;;;34.47;34.44
67740;BME280;54536;50.090;14.420;2023-08-20T11:31:47;99908.56;;;34.55;34.08
67740;BME280;54536;50.090;14.420;2023-08-20T11:34:14;99906.41;;;34.47;34.21
67740;BME280;54536;50.090;14.420;2023-08-20T11:36:40;99897.69;;;34.40;34.18
67740;BME280;54536;50.090;14.420;2023-08-20T11:39:08;99897.22;;;34.28;34.38
67740;BME280;54536;50.090;14.420;2023-08-20T11:41:38;99892.38;;;34.14;34.66
67740;BME280;54536;50.090;14.420;2023-08-20T11:44:08;99892.72;;;33.92;34.72
67740;BME280;54536;50.090;14.420;2023-08-20T11:46:42;99887.31;;;33.72;35.36
67740;BME280;54536;50.090;14.420;2023-08-20T11:49:11;99885.66;;;33.71;35.33
67740;BME280;54536;50.090;14.420;2023-08-20T11:51:57;99882.41;;;33.64;35.86
67740;BME280;54536;50.090;14.420;2023-08-20T11:54:27;99887.88;;;33.69;35.89
67740;BME280;54536;50.090;14.420;2023-08-20T11:57:02;99886.75;;;33.80;35.01
67740;BME280;54536;50.090;14.420;2023-08-20T11:59:28;99888.91;;;33.88;35.78
67740;BME280;54536;50.090;14.420;2023-08-20T12:01:57;99887.50;;;33.96;34.61
67740;BME280;54536;50.090;14.420;2023-08-20T12:04:26;99887.00;;;33.89;34.92
67740;BME280;54536;50.090;14.420;2023-08-20T12:07:08;99883.94;;;34.00;34.88
67740;BME280;54536;50.090;14.420;2023-08-20T12:09:36;99890.72;;;34.13;34.68
67740;BME280;54536;50.090;14.420;2023-08-20T12:12:02;99886.25;;;34.38;33.99
67740;BME280;54536;50.090;14.420;2023-08-20T12:14:29;99881.75;;;34.62;34.00
67740;BME280;54536;50.090;14.420;2023-08-20T12:16:55;99880.56;;;35.42;32.42
67740;BME280;54536;50.090;14.420;2023-08-20T12:19:22;99875.94;;;36.33;31.08
67740;BME280;54536;50.090;14.420;2023-08-20T12:21:48;99879.84;;;37.03;29.72
67740;BME280;54536;50.090;14.420;2023-08-20T12:24:16;99871.84;;;38.08;28.29
67740;BME280;54536;50.090;14.420;2023-08-20T12:26:42;99869.41;;;38.79;26.93
67740;BME280;54536;50.090;14.420;2023-08-20T12:29:09;99865.66;;;39.51;26.29
67740;BME280;54536;50.090;14.420;2023-08-20T12:31:36;99857.69;;;39.90;25.16
67740;BME280;54536;50.090;14.420;2023-08-20T12:34:02;99853.88;;;40.34;24.77
67740;BME280;54536;50.090;14.420;2023-08-20T12:36:29;99849.47;;;41.03;23.72
67740;BME280;54536;50.090;14.420;2023-08-20T12:38:56;99848.22;;;41.30;23.35
67740;BME280;54536;50.090;14.420;2023-08-20T12:41:23;99839.81;;;41.64;23.01
67740;BME280;54536;50.090;14.420;2023-08-20T12:43:49;99843.47;;;41.86;22.21
67740;BME280;54536;50.090;14.420;2023-08-20T12:46:16;99838.13;;;42.02;22.26
67740;BME280;54536;50.090;14.420;2023-08-20T12:48:43;99832.13;;;42.29;21.64
67740;BME280;54536;50.090;14.420;2023-08-20T12:51:09;99828.56;;;42.62;21.63
67740;BME280;54536;50.090;14.420;2023-08-20T12:53:39;99829.25;;;42.38;21.97
67740;BME280;54536;50.090;14.420;2023-08-20T12:56:05;99818.69;;;42.73;21.50
67740;BME280;54536;50.090;14.420;2023-08-20T12:58:32;99819.53;;;42.53;21.99
67740;BME280;54536;50.090;14.420;2023-08-20T13:00:58;99814.38;;;41.80;22.80
67740;BME280;54536;50.090;14.420;2023-08-20T13:03:25;99807.00;;;42.35;21.87
67740;BME280;54536;50.090;14.420;2023-08-20T13:05:51;99801.16;;;42.36;21.69